Time;durP1;ratioP1;P1;durP2;ratioP2;P2;SDS_P1;SDS_P2;PMS_P1;PMS_P2;Temp;Humidity;BMP_temperature;BMP_pressure;BME280_temperature;BME280_humidity;BME280_pressure;Samples;Min_cycle;Max_cycle;Signal;HPM_P1;HPM_P2
2022/03/02 00:01:39;;;;;;;;;;;;;;;17.63;49.23;102826.78;4995599;28;20000;-76
2022/03/02 00:04:05;;;;;;;;;;;;;;;17.65;49.18;102832.03;4996876;28;19918;-76
2022/03/02 00:06:30;;;;;;;;;;;;;;;17.65;49.16;102829.44;4995914;28;19914;-76
2022/03/02 00:08:56;;;;;;;;;;;;;;;17.65;49.05;102832.03;4996904;28;19917;-77
2022/03/02 00:11:21;;;;;;;;;;;;;;;17.65;49.24;102829.44;4995271;28;20234;-75
2022/03/02 00:13:46;;;;;;;;;;;;;;;17.64;48.99;102822.50;4996707;28;20407;-76
2022/03/02 00:16:12;;;;;;;;;;;;;;;17.64;48.96;102825.09;4979065;28;19921;-76
2022/03/02 00:18:38;;;;;;;;;;;;;;;17.65;49.00;102824.22;4996246;28;19972;-74
2022/03/02 00:21:03;;;;;;;;;;;;;;;17.63;49.16;102818.09;4978972;28;19918;-75
2022/03/02 00:23:29;;;;;;;;;;;;;;;17.63;49.10;102823.31;4996252;28;19921;-75
2022/03/02 00:25:55;;;;;;;;;;;;;;;17.62;49.07;102830.25;4962807;28;19922;-75
2022/03/02 00:28:20;;;;;;;;;;;;;;;17.61;49.08;102817.19;4996153;28;20029;-75
2022/03/02 00:30:45;;;;;;;;;;;;;;;17.61;49.02;102820.66;4978561;28;19997;-75
2022/03/02 00:33:10;;;;;;;;;;;;;;;17.62;48.96;102819.84;4978625;28;19913;-76
2022/03/02 00:35:36;;;;;;;;;;;;;;;17.62;48.92;102817.25;4962390;28;19924;-75
2022/03/02 00:38:02;;;;;;;;;;;;;;;17.62;48.85;102817.25;4995970;28;19918;-76
2022/03/02 00:40:27;;;;;;;;;;;;;;;17.61;48.82;102812.84;4995785;28;19921;-74
2022/03/02 00:42:53;;;;;;;;;;;;;;;17.61;49.08;102809.38;4995959;28;20288;-75
2022/03/02 00:45:18;;;;;;;;;;;;;;;17.60;48.81;102805.91;4995834;28;19925;-75
2022/03/02 00:47:43;;;;;;;;;;;;;;;17.60;48.81;102808.50;4962194;28;19962;-74
2022/03/02 00:50:09;;;;;;;;;;;;;;;17.60;48.97;102807.66;4995861;28;19917;-75
2022/03/02 00:52:35;;;;;;;;;;;;;;;17.60;48.93;102797.22;4995934;28;19918;-75
2022/03/02 00:55:00;;;;;;;;;;;;;;;17.60;48.71;102798.09;4978431;28;19945;-76
2022/03/02 00:57:25;;;;;;;;;;;;;;;17.61;48.86;102793.75;4995820;28;19941;-76
2022/03/02 00:59:51;;;;;;;;;;;;;;;17.59;48.78;102798.94;4978231;28;19940;-74
2022/03/02 01:02:16;;;;;;;;;;;;;;;17.59;48.98;102792.84;4978081;28;19918;-75
2022/03/02 01:04:41;;;;;;;;;;;;;;;17.58;48.90;102797.19;4995407;28;19973;-76
2022/03/02 01:07:06;;;;;;;;;;;;;;;17.59;48.71;102795.44;4995560;28;19956;-75
2022/03/02 01:09:32;;;;;;;;;;;;;;;17.57;48.84;102792.84;4977951;28;20292;-75
2022/03/02 01:11:58;;;;;;;;;;;;;;;17.58;48.56;102793.72;4995627;28;19957;-75
2022/03/02 01:14:23;;;;;;;;;;;;;;;17.58;48.53;102804.13;4993516;28;19968;-76
2022/03/02 01:16:49;;;;;;;;;;;;;;;17.57;48.69;102797.16;4993901;28;19984;-77
2022/03/02 01:19:14;;;;;;;;;;;;;;;17.58;48.88;102801.53;4995286;28;19976;-76
2022/03/02 01:21:39;;;;;;;;;;;;;;;17.57;48.77;102800.66;4994323;28;19929;-75
2022/03/02 01:24:05;;;;;;;;;;;;;;;17.57;48.91;102798.03;4993886;28;19968;-76
2022/03/02 01:26:31;;;;;;;;;;;;;;;17.57;48.77;102797.16;4995056;28;19917;-76
2022/03/02 01:28:56;;;;;;;;;;;;;;;17.57;48.56;102787.63;4994791;28;19918;-75
2022/03/02 01:31:23;;;;;;;;;;;;;;;17.57;48.61;102797.16;4993830;28;19914;-76
2022/03/02 01:33:49;;;;;;;;;;;;;;;17.57;48.64;102792.84;4978077;28;20304;-75
2022/03/02 01:36:14;;;;;;;;;;;;;;;17.57;48.56;102784.13;4993902;28;19972;-76
2022/03/02 01:38:39;;;;;;;;;;;;;;;17.56;48.46;102785.84;4977484;28;20273;-76
2022/03/02 01:41:05;;;;;;;;;;;;;;;17.55;48.71;102785.81;4993607;28;19913;-76
2022/03/02 01:43:30;;;;;;;;;;;;;;;17.54;48.51;102776.25;4993690;28;20339;-76
2022/03/02 01:45:55;;;;;;;;;;;;;;;17.54;48.75;102774.53;4994777;28;19937;-75
2022/03/02 01:48:21;;;;;;;;;;;;;;;17.54;48.69;102769.31;4993432;28;19918;-76
2022/03/02 01:50:46;;;;;;;;;;;;;;;17.56;48.69;102771.97;4977186;28;19918;-76
2022/03/02 01:53:11;;;;;;;;;;;;;;;17.54;48.47;102764.13;4994886;28;19921;-76
2022/03/02 01:55:37;;;;;;;;;;;;;;;17.54;48.47;102760.66;4993477;28;19925;-75
2022/03/02 01:58:02;;;;;;;;;;;;;;;17.54;48.66;102758.91;4977133;28;20364;-75
2022/03/02 02:00:28;;;;;;;;;;;;;;;17.53;48.55;102759.78;4993344;28;19921;-76
2022/03/02 02:02:53;;;;;;;;;;;;;;;17.54;48.56;102753.72;4994453;28;20272;-77
2022/03/02 02:05:18;;;;;;;;;;;;;;;17.55;48.37;102754.56;4994645;28;19953;-76
2022/03/02 02:07:44;;;;;;;;;;;;;;;17.55;48.44;102757.19;4993217;28;20311;-75
2022/03/02 02:10:10;;;;;;;;;;;;;;;17.53;48.44;102748.47;4993290;28;19914;-75
2022/03/02 02:12:36;;;;;;;;;;;;;;;17.53;48.56;102746.75;4994187;28;19918;-76
2022/03/02 02:15:02;;;;;;;;;;;;;;;17.53;48.49;102749.38;4991825;28;19925;-76
2022/03/02 02:17:27;;;;;;;;;;;;;;;17.54;48.36;102742.44;4994355;28;19922;-76
2022/03/02 02:19:52;;;;;;;;;;;;;;;17.53;48.71;102735.44;4993232;28;20390;-76
2022/03/02 02:22:18;;;;;;;;;;;;;;;17.53;48.38;102743.25;4993028;28;19938;-75
2022/03/02 02:24:43;;;;;;;;;;;;;;;17.52;48.72;102734.56;4994479;28;19960;-75
2022/03/02 02:27:09;;;;;;;;;;;;;;;17.52;48.42;102731.09;4993065;28;19925;-77
2022/03/02 02:29:34;;;;;;;;;;;;;;;17.52;48.46;102725.91;4992968;28;19924;-76
2022/03/02 02:32:00;;;;;;;;;;;;;;;17.52;48.45;102725.91;4993105;28;19928;-75
2022/03/02 02:34:25;;;;;;;;;;;;;;;17.52;48.38;102723.28;4994442;28;20225;-75
2022/03/02 02:36:51;;;;;;;;;;;;;;;17.52;48.62;102720.69;4993096;28;19922;-77
2022/03/02 02:39:16;;;;;;;;;;;;;;;17.51;48.42;102724.13;4976858;28;19918;-75
2022/03/02 02:41:41;;;;;;;;;;;;;;;17.50;48.54;102722.38;4994276;28;20365;-75
2022/03/02 02:44:07;;;;;;;;;;;;;;;17.51;48.34;102725.03;4992773;28;19920;-76
2022/03/02 02:46:32;;;;;;;;;;;;;;;17.51;48.37;102726.72;4994049;28;20296;-75
2022/03/02 02:48:57;;;;;;;;;;;;;;;17.48;48.71;102719.72;4976969;28;20360;-77
2022/03/02 02:51:22;;;;;;;;;;;;;;;17.48;48.42;102710.22;4994830;28;19918;-75
2022/03/02 02:53:48;;;;;;;;;;;;;;;17.48;48.39;102707.63;4976977;28;19917;-76
2022/03/02 02:56:13;;;;;;;;;;;;;;;17.49;48.43;102711.09;4976615;28;20012;-75
2022/03/02 02:58:39;;;;;;;;;;;;;;;17.50;48.54;102706.75;4992896;28;19976;-76
2022/03/02 03:01:04;;;;;;;;;;;;;;;17.48;48.36;102699.81;4993955;28;19913;-75
2022/03/02 03:03:29;;;;;;;;;;;;;;;17.48;48.29;102702.41;4998113;28;20153;-75
2022/03/02 03:05:55;;;;;;;;;;;;;;;17.48;48.36;102698.91;4999478;28;20011;-76
2022/03/02 03:08:20;;;;;;;;;;;;;;;17.49;48.35;102703.28;4998959;28;19925;-77
2022/03/02 03:10:47;;;;;;;;;;;;;;;17.48;48.30;102697.22;4999023;28;19914;-77
2022/03/02 03:13:12;;;;;;;;;;;;;;;17.49;48.38;102692.88;4996832;28;20387;-78
2022/03/02 03:15:38;;;;;;;;;;;;;;;17.47;48.32;102699.78;4997657;28;19917;-76
2022/03/02 03:18:04;;;;;;;;;;;;;;;17.47;48.50;102691.97;4996333;28;19910;-77
2022/03/02 03:20:31;;;;;;;;;;;;;;;17.47;48.29;102691.97;4997692;28;19988;-77
2022/03/02 03:22:56;;;;;;;;;;;;;;;17.46;48.33;102688.50;4996150;28;19920;-76
2022/03/02 03:25:22;;;;;;;;;;;;;;;17.45;48.52;102681.50;4997467;28;19914;-78
2022/03/02 03:27:48;;;;;;;;;;;;;;;17.45;48.35;102684.13;4996045;28;19941;-77
2022/03/02 03:30:15;;;;;;;;;;;;;;;17.46;48.27;102678.06;4997187;28;19921;-77
2022/03/02 03:32:41;;;;;;;;;;;;;;;17.45;48.37;102676.31;4997536;28;19910;-77
2022/03/02 03:35:07;;;;;;;;;;;;;;;17.47;48.26;102673.75;4997286;28;19937;-78
2022/03/02 03:37:32;;;;;;;;;;;;;;;17.44;48.29;102666.75;4997061;28;20276;-77
2022/03/02 03:39:57;;;;;;;;;;;;;;;17.44;48.56;102658.03;4995874;28;19940;-76
2022/03/02 03:42:23;;;;;;;;;;;;;;;17.45;48.30;102662.44;4997119;28;20261;-78
2022/03/02 03:44:48;;;;;;;;;;;;;;;17.45;48.25;102659.81;4995659;28;20375;-77
2022/03/02 03:47:13;;;;;;;;;;;;;;;17.44;48.40;102661.56;4979421;28;20012;-76
2022/03/02 03:49:39;;;;;;;;;;;;;;;17.43;48.24;102657.19;4995766;28;20332;-76
2022/03/02 03:52:04;;;;;;;;;;;;;;;17.43;48.36;102657.19;4997267;28;19918;-76
2022/03/02 03:54:29;;;;;;;;;;;;;;;17.44;48.44;102664.16;4996914;28;19918;-78
2022/03/02 03:56:55;;;;;;;;;;;;;;;17.43;48.14;102656.31;4996765;28;19960;-76
2022/03/02 03:59:20;;;;;;;;;;;;;;;17.43;48.16;102657.19;4979343;28;19924;-77
2022/03/02 04:01:45;;;;;;;;;;;;;;;17.43;48.27;102662.38;4995399;28;19918;-77
2022/03/02 04:04:10;;;;;;;;;;;;;;;17.43;48.38;102664.97;4995543;28;19917;-77
2022/03/02 04:06:36;;;;;;;;;;;;;;;17.43;48.25;102661.50;4995614;28;19918;-77
2022/03/02 04:09:02;;;;;;;;;;;;;;;17.41;48.17;102658.88;4996596;28;19924;-77
2022/03/02 04:11:28;;;;;;;;;;;;;;;17.42;48.22;102655.44;4995478;28;19917;-78
2022/03/02 04:13:53;;;;;;;;;;;;;;;17.42;48.18;102651.94;4995160;28;20013;-77
2022/03/02 04:16:20;;;;;;;;;;;;;;;17.40;48.22;102654.53;4978785;28;20144;-76
2022/03/02 04:18:46;;;;;;;;;;;;;;;17.41;48.43;102652.78;4979022;28;20016;-75
2022/03/02 04:21:11;;;;;;;;;;;;;;;17.41;48.24;102653.66;4996331;28;19918;-74
2022/03/02 04:23:37;;;;;;;;;;;;;;;17.40;48.16;102653.66;4978779;28;19924;-74
2022/03/02 04:26:02;;;;;;;;;;;;;;;17.42;48.34;102651.94;4978904;28;19914;-76
2022/03/02 04:28:29;;;;;;;;;;;;;;;17.41;48.21;102647.59;4995999;28;19925;-76
2022/03/02 04:30:54;;;;;;;;;;;;;;;17.40;48.10;102646.72;4996316;28;20360;-75
2022/03/02 04:33:19;;;;;;;;;;;;;;;17.40;48.20;102644.13;4996170;28;19972;-75
2022/03/02 04:35:44;;;;;;;;;;;;;;;17.39;48.08;102641.47;4996203;28;20277;-76
2022/03/02 04:38:10;;;;;;;;;;;;;;;17.38;48.28;102632.78;4962574;28;19945;-75
2022/03/02 04:40:36;;;;;;;;;;;;;;;17.38;48.19;102624.13;4978564;28;19925;-75
2022/03/02 04:43:01;;;;;;;;;;;;;;;17.38;48.11;102626.72;4995980;28;19918;-76
2022/03/02 04:45:27;;;;;;;;;;;;;;;17.38;48.12;102627.59;4996264;28;19917;-76
2022/03/02 04:47:53;;;;;;;;;;;;;;;17.38;48.21;102624.13;4978368;28;19917;-76
2022/03/02 04:50:22;;;;;;;;;;;;;;;17.38;48.06;102621.53;4978448;28;20319;-74
2022/03/02 04:52:48;;;;;;;;;;;;;;;17.38;48.16;102624.13;4995947;28;19921;-75
2022/03/02 04:55:13;;;;;;;;;;;;;;;17.36;48.04;102618.88;4996022;28;19918;-74
2022/03/02 04:57:43;;;;;;;;;;;;;;;17.36;48.18;102621.47;4978465;28;19928;-74
2022/03/02 05:00:20;;;;;;;;;;;;;;;17.37;48.08;102617.16;4995824;28;19960;-76
2022/03/02 05:02:45;;;;;;;;;;;;;;;17.36;48.25;102626.69;4978191;28;19914;-76
2022/03/02 05:05:12;;;;;;;;;;;;;;;17.37;48.03;102624.94;4995483;28;20028;-76
2022/03/02 05:07:37;;;;;;;;;;;;;;;17.37;48.06;102628.41;4995512;28;19960;-76
2022/03/02 05:10:04;;;;;;;;;;;;;;;17.36;47.99;102623.22;4977902;28;19918;-76
2022/03/02 05:12:29;;;;;;;;;;;;;;;17.35;48.16;102618.84;4995428;28;19914;-76
2022/03/02 05:14:54;;;;;;;;;;;;;;;17.34;48.31;102619.69;4989899;28;19929;-75
2022/03/02 05:17:19;;;;;;;;;;;;;;;17.34;48.01;102614.50;4994411;28;20365;-76
2022/03/02 05:19:45;;;;;;;;;;;;;;;17.35;48.05;102617.09;4994146;28;19918;-76
2022/03/02 05:22:10;;;;;;;;;;;;;;;17.34;48.11;102620.56;4994065;28;19918;-76
2022/03/02 05:24:36;;;;;;;;;;;;;;;17.34;48.05;102610.16;4993738;28;19909;-76
2022/03/02 05:27:01;;;;;;;;;;;;;;;17.35;48.01;102605.81;4995289;28;19952;-76
2022/03/02 05:29:26;;;;;;;;;;;;;;;17.34;48.19;102604.09;4993673;28;19917;-75
2022/03/02 05:31:52;;;;;;;;;;;;;;;17.34;48.00;102604.97;4977590;28;19917;-74
2022/03/02 05:34:17;;;;;;;;;;;;;;;17.34;48.03;102607.56;4995187;28;19918;-75
2022/03/02 05:36:42;;;;;;;;;;;;;;;17.34;48.27;102607.56;4993692;28;19913;-74
2022/03/02 05:39:07;;;;;;;;;;;;;;;17.35;47.93;102613.63;4995012;28;19921;-75
2022/03/02 05:41:35;;;;;;;;;;;;;;;17.34;47.85;102610.16;4993675;28;20012;-78
2022/03/02 05:44:01;;;;;;;;;;;;;;;17.34;47.89;102609.28;4993704;28;19956;-76
2022/03/02 05:46:27;;;;;;;;;;;;;;;17.33;47.86;102608.38;4993868;28;20422;-75
2022/03/02 05:48:53;;;;;;;;;;;;;;;17.34;48.24;102606.69;4993996;28;20365;-75
2022/03/02 05:51:19;;;;;;;;;;;;;;;17.33;47.92;102600.56;4993679;28;20016;-75
2022/03/02 05:53:44;;;;;;;;;;;;;;;17.31;47.94;102594.50;4993818;28;19921;-77
2022/03/02 05:56:09;;;;;;;;;;;;;;;17.33;48.02;102591.91;4994646;28;19917;-75
2022/03/02 05:58:35;;;;;;;;;;;;;;;17.33;48.15;102597.09;4993398;28;19918;-75
2022/03/02 06:01:00;;;;;;;;;;;;;;;17.34;48.27;102596.28;4993493;28;20360;-75
2022/03/02 06:03:25;;;;;;;;;;;;;;;17.33;48.22;102600.56;4993232;28;19959;-74
2022/03/02 06:05:51;;;;;;;;;;;;;;;17.34;48.28;102607.56;4993153;28;19929;-74
2022/03/02 06:08:16;;;;;;;;;;;;;;;17.34;48.55;102614.50;4994364;28;19918;-74
2022/03/02 06:10:41;;;;;;;;;;;;;;;17.35;48.58;102611.91;4993170;28;20395;-76
2022/03/02 06:13:07;;;;;;;;;;;;;;;17.35;48.73;102614.50;4993041;28;19917;-76
2022/03/02 06:15:32;;;;;;;;;;;;;;;17.35;48.77;102611.91;4994392;28;19977;-76
2022/03/02 06:18:01;;;;;;;;;;;;;;;17.36;48.85;102615.41;4994621;28;19996;-76
2022/03/02 06:20:27;;;;;;;;;;;;;;;17.35;48.74;102619.69;4994379;28;19925;-76
2022/03/02 06:22:52;;;;;;;;;;;;;;;17.37;48.87;102618.00;4977257;28;19918;-77
2022/03/02 06:25:17;;;;;;;;;;;;;;;17.37;48.83;102618.00;4994538;28;19957;-76
2022/03/02 06:27:43;;;;;;;;;;;;;;;17.38;48.84;102616.31;4994331;28;19965;-78
2022/03/02 06:30:08;;;;;;;;;;;;;;;17.38;48.73;102619.78;4977443;28;19922;-77
2022/03/02 06:32:34;;;;;;;;;;;;;;;17.39;48.93;102623.25;4976937;28;19918;-78
2022/03/02 06:34:59;;;;;;;;;;;;;;;17.39;48.79;102624.13;4994404;28;19913;-77
2022/03/02 06:37:26;;;;;;;;;;;;;;;17.40;48.92;102625.03;4996111;28;19914;-78
2022/03/02 06:39:51;;;;;;;;;;;;;;;17.40;48.80;102631.09;4998433;28;19960;-78
2022/03/02 06:42:18;;;;;;;;;;;;;;;17.41;48.80;102630.25;4980790;28;19961;-76
2022/03/02 06:44:47;;;;;;;;;;;;;;;17.42;48.86;102636.31;4998229;28;19914;-77
2022/03/02 06:47:13;;;;;;;;;;;;;;;17.42;48.79;102634.63;4980638;28;19913;-78
2022/03/02 06:49:38;;;;;;;;;;;;;;;17.43;48.93;102638.09;4998176;28;19953;-77
2022/03/02 06:52:04;;;;;;;;;;;;;;;17.43;48.83;102635.50;4998045;28;19968;-78
2022/03/02 06:54:31;;;;;;;;;;;;;;;17.49;49.11;102640.81;4980564;28;19964;-77
2022/03/02 06:57:00;;;;;;;;;;;;;;;17.62;49.11;102641.94;4998094;28;19914;-76
2022/03/02 06:59:30;;;;;;;;;;;;;;;17.67;49.16;102628.13;4997915;28;19913;-77
2022/03/02 07:01:58;;;;;;;;;;;;;;;17.73;49.16;102637.81;4980366;28;19960;-77
2022/03/02 07:04:24;;;;;;;;;;;;;;;17.79;49.06;102631.81;4997895;28;19914;-76
2022/03/02 07:06:51;;;;;;;;;;;;;;;17.81;49.05;102630.13;4997684;28;20280;-78
2022/03/02 07:09:17;;;;;;;;;;;;;;;17.84;48.94;102638.91;4997529;28;20288;-75
2022/03/02 07:11:42;;;;;;;;;;;;;;;17.87;48.86;102632.88;4997785;28;19921;-77
2022/03/02 07:14:08;;;;;;;;;;;;;;;17.88;48.83;102629.44;4997493;28;19922;-76
2022/03/02 07:16:34;;;;;;;;;;;;;;;17.91;48.75;102632.06;4964219;28;19921;-77
2022/03/02 07:19:00;;;;;;;;;;;;;;;17.93;48.65;102619.97;4963871;28;19922;-78
2022/03/02 07:21:26;;;;;;;;;;;;;;;17.95;48.57;102623.47;4980344;28;19920;-76
2022/03/02 07:23:54;;;;;;;;;;;;;;;17.97;48.67;102620.91;4997641;28;19937;-75
2022/03/02 07:26:21;;;;;;;;;;;;;;;18.00;48.46;102628.75;4997472;28;19913;-76
2022/03/02 07:28:47;;;;;;;;;;;;;;;18.02;48.38;102627.91;4979870;28;19917;-76
2022/03/02 07:31:12;;;;;;;;;;;;;;;18.07;48.15;102634.09;4980124;28;19925;-75
2022/03/02 07:33:41;;;;;;;;;;;;;;;18.08;48.01;102628.03;4997382;28;19967;-77
2022/03/02 07:36:08;;;;;;;;;;;;;;;18.10;48.10;102633.28;4997518;28;19918;-77
2022/03/02 07:38:33;;;;;;;;;;;;;;;18.12;48.08;102636.78;4979643;28;19917;-77
2022/03/02 07:40:59;;;;;;;;;;;;;;;18.16;48.02;102643.81;4997631;28;20257;-76
2022/03/02 07:43:24;;;;;;;;;;;;;;;18.18;47.76;102642.09;4997154;28;20367;-77
2022/03/02 07:45:50;;;;;;;;;;;;;;;18.19;47.95;102642.97;4979765;28;20100;-77
2022/03/02 07:48:15;;;;;;;;;;;;;;;18.19;47.88;102641.25;4996752;28;19929;-76
2022/03/02 07:50:41;;;;;;;;;;;;;;;18.18;47.89;102641.19;4997047;28;19959;-76
2022/03/02 07:53:07;;;;;;;;;;;;;;;18.16;47.90;102637.69;4997151;28;19940;-77
2022/03/02 07:55:33;;;;;;;;;;;;;;;18.14;47.93;102637.69;4979642;28;19917;-77
2022/03/02 07:58:00;;;;;;;;;;;;;;;18.13;47.84;102643.72;4979457;28;19920;-76
2022/03/02 08:00:28;;;;;;;;;;;;;;;18.16;47.75;102645.50;4979563;28;19914;-76
2022/03/02 08:02:53;;;;;;;;;;;;;;;18.19;47.65;102640.38;4996651;28;19918;-78
2022/03/02 08:05:21;;;;;;;;;;;;;;;18.22;47.59;102641.28;4996722;28;19917;-77
2022/03/02 08:07:48;;;;;;;;;;;;;;;18.22;47.74;102635.19;4979111;28;20272;-76
2022/03/02 08:10:15;;;;;;;;;;;;;;;18.26;47.34;102637.00;4996842;28;20337;-78
2022/03/02 08:12:41;;;;;;;;;;;;;;;18.29;47.29;102637.94;4979300;28;20028;-78
2022/03/02 08:15:07;;;;;;;;;;;;;;;18.27;47.48;102642.25;4996608;28;19965;-76
2022/03/02 08:17:32;;;;;;;;;;;;;;;18.20;47.45;102637.75;4978906;28;19976;-76
2022/03/02 08:19:57;;;;;;;;;;;;;;;18.16;47.78;102648.13;4996521;28;20376;-76
2022/03/02 08:22:23;;;;;;;;;;;;;;;18.15;47.61;102648.97;4979419;28;19992;-77
2022/03/02 08:25:03;;;;;;;;;;;;;;;18.15;47.73;102651.59;4978925;28;20029;-77
2022/03/02 08:27:29;;;;;;;;;;;;;;;18.17;47.54;102649.88;4996398;28;20364;-75
2022/03/02 08:29:56;;;;;;;;;;;;;;;18.22;47.42;102650.84;4996224;28;19918;-76
2022/03/02 08:32:22;;;;;;;;;;;;;;;18.23;47.50;102648.25;4996322;28;20283;-76
2022/03/02 08:34:48;;;;;;;;;;;;;;;18.40;47.07;102642.44;4996253;28;19913;-76
2022/03/02 08:37:17;;;;;;;;;;;;;;;18.44;46.81;102645.13;4996280;28;19913;-76
2022/03/02 08:39:42;;;;;;;;;;;;;;;18.42;46.98;102646.84;4962920;28;19918;-76
2022/03/02 08:42:08;;;;;;;;;;;;;;;18.38;47.16;102651.94;4978844;28;19973;-76
2022/03/02 08:44:33;;;;;;;;;;;;;;;18.40;47.13;102650.25;4996016;28;19918;-77
2022/03/02 08:46:58;;;;;;;;;;;;;;;18.39;47.15;102646.78;4995930;28;20398;-76
2022/03/02 08:49:24;;;;;;;;;;;;;;;18.34;47.43;102653.66;4978282;28;19922;-76
2022/03/02 08:51:50;;;;;;;;;;;;;;;18.28;47.42;102645.72;4996073;28;19940;-77
2022/03/02 08:54:17;;;;;;;;;;;;;;;18.29;47.10;102645.75;4995814;28;20288;-77
2022/03/02 08:56:42;;;;;;;;;;;;;;;18.29;47.08;102643.16;4995813;28;20390;-76
2022/03/02 08:59:10;;;;;;;;;;;;;;;18.36;46.96;102633.69;4977787;28;20037;-76
2022/03/02 09:01:37;;;;;;;;;;;;;;;18.37;46.98;102637.19;4977974;28;19921;-75
2022/03/02 09:04:02;;;;;;;;;;;;;;;18.36;46.95;102635.44;4995764;28;19913;-76
2022/03/02 09:06:28;;;;;;;;;;;;;;;18.33;46.98;102633.63;4961972;28;20020;-75
2022/03/02 09:08:55;;;;;;;;;;;;;;;18.36;46.81;102625.00;4995506;28;19968;-76
2022/03/02 09:11:20;;;;;;;;;;;;;;;18.32;47.01;102628.41;4995488;28;19960;-77
2022/03/02 09:13:46;;;;;;;;;;;;;;;18.30;47.06;102625.78;4995422;28;19922;-75
2022/03/02 09:16:11;;;;;;;;;;;;;;;18.30;47.02;102623.19;4978550;28;19921;-76
2022/03/02 09:18:37;;;;;;;;;;;;;;;18.29;47.10;102617.09;4978434;28;20262;-76
2022/03/02 09:21:03;;;;;;;;;;;;;;;18.28;46.82;102615.31;4995303;28;20031;-76
2022/03/02 09:23:30;;;;;;;;;;;;;;;18.25;47.17;102612.69;4995480;28;19914;-77
2022/03/02 09:26:02;;;;;;;;;;;;;;;18.25;46.83;102611.81;4995301;28;19984;-75
2022/03/02 09:28:33;;;;;;;;;;;;;;;18.25;46.93;102609.22;4977760;28;20372;-77
2022/03/02 09:31:02;;;;;;;;;;;;;;;18.26;46.84;102613.53;4995302;28;20357;-77
2022/03/02 09:33:27;;;;;;;;;;;;;;;18.26;46.76;102608.34;4978144;28;19957;-76
2022/03/02 09:35:53;;;;;;;;;;;;;;;18.26;46.72;102611.81;4977604;28;19964;-77
2022/03/02 09:38:18;;;;;;;;;;;;;;;18.24;46.74;102607.44;4977832;28;19925;-77
2022/03/02 09:40:47;;;;;;;;;;;;;;;18.22;46.79;102604.78;4977721;28;20000;-77
2022/03/02 09:43:16;;;;;;;;;;;;;;;18.22;46.81;102602.19;4977791;28;19936;-76
2022/03/02 09:45:42;;;;;;;;;;;;;;;18.20;46.89;102598.69;4994971;28;19925;-76
2022/03/02 09:48:12;;;;;;;;;;;;;;;18.19;46.65;102596.94;4995044;28;20257;-76
2022/03/02 09:50:39;;;;;;;;;;;;;;;18.19;46.66;102601.28;4994971;28;19941;-76
2022/03/02 09:53:08;;;;;;;;;;;;;;;18.18;46.76;102599.50;4961846;28;19921;-77
2022/03/02 09:55:35;;;;;;;;;;;;;;;18.17;46.57;102596.03;4977920;28;19924;-77
2022/03/02 09:58:00;;;;;;;;;;;;;;;18.16;46.62;102596.91;4977532;28;19917;-77
2022/03/02 10:00:27;;;;;;;;;;;;;;;18.15;46.52;102592.53;4977133;28;19914;-76
2022/03/02 10:02:55;;;;;;;;;;;;;;;18.14;46.53;102593.41;4977074;28;20356;-77
2022/03/02 10:05:21;;;;;;;;;;;;;;;18.13;46.69;102596.84;4994605;28;19921;-77
2022/03/02 10:07:54;;;;;;;;;;;;;;;18.13;46.65;102595.97;4977112;28;20292;-77
2022/03/02 10:10:23;;;;;;;;;;;;;;;18.13;46.56;102591.63;4977075;28;20008;-78
2022/03/02 10:12:53;;;;;;;;;;;;;;;18.14;46.63;102589.88;4977177;28;19913;-76
2022/03/02 10:15:19;;;;;;;;;;;;;;;18.13;46.66;102591.63;4994638;28;19922;-77
2022/03/02 10:17:45;;;;;;;;;;;;;;;18.13;46.53;102596.84;4994465;28;19921;-76
2022/03/02 10:20:21;;;;;;;;;;;;;;;18.12;46.55;102597.69;4977014;28;20004;-76
2022/03/02 10:22:46;;;;;;;;;;;;;;;18.12;46.51;102591.59;4976924;28;19968;-77
2022/03/02 10:25:13;;;;;;;;;;;;;;;18.12;46.46;102586.38;4976869;28;19921;-77
2022/03/02 10:27:58;;;;;;;;;;;;;;;18.11;46.57;102587.25;4994662;28;19914;-76
2022/03/02 10:30:24;;;;;;;;;;;;;;;18.11;46.38;102585.50;4994409;28;19918;-76
2022/03/02 10:32:52;;;;;;;;;;;;;;;18.11;46.50;102584.66;4977087;28;19945;-76
2022/03/02 10:35:21;;;;;;;;;;;;;;;18.09;46.46;102584.59;4994249;28;19921;-77
2022/03/02 10:37:55;;;;;;;;;;;;;;;18.09;46.35;102584.59;4976716;28;20016;-77
2022/03/02 10:40:24;;;;;;;;;;;;;;;18.09;46.44;102589.81;4994125;28;19921;-76
2022/03/02 10:42:57;;;;;;;;;;;;;;;18.09;46.42;102575.09;4994222;28;19936;-76
2022/03/02 10:45:30;;;;;;;;;;;;;;;18.08;46.39;102581.13;4994130;28;19914;-75
2022/03/02 10:48:02;;;;;;;;;;;;;;;18.09;46.38;102582.91;4994082;28;19914;-75
2022/03/02 10:50:29;;;;;;;;;;;;;;;18.08;46.35;102583.75;4976563;28;19920;-78
2022/03/02 10:52:55;;;;;;;;;;;;;;;18.08;46.13;102580.28;4976734;28;19913;-76
2022/03/02 10:55:21;;;;;;;;;;;;;;;18.07;46.21;102579.41;4994247;28;19918;-76
2022/03/02 10:57:48;;;;;;;;;;;;;;;18.08;46.31;102580.28;4976954;28;19918;-77
2022/03/02 11:00:14;;;;;;;;;;;;;;;18.07;46.11;102578.50;4976726;28;19953;-76
2022/03/02 11:02:44;;;;;;;;;;;;;;;18.08;46.14;102577.66;4976522;28;20333;-77
2022/03/02 11:05:11;;;;;;;;;;;;;;;18.08;46.11;102572.44;4976491;28;19914;-77
2022/03/02 11:07:37;;;;;;;;;;;;;;;18.07;46.15;102563.75;4993977;28;20463;-77
2022/03/02 11:10:03;;;;;;;;;;;;;;;18.09;46.18;102566.38;4976358;28;19922;-77
2022/03/02 11:12:30;;;;;;;;;;;;;;;18.08;45.91;102572.44;4976710;28;20019;-76
2022/03/02 11:14:56;;;;;;;;;;;;;;;18.09;46.00;102564.66;4993757;28;20025;-76
2022/03/02 11:17:21;;;;;;;;;;;;;;;18.09;46.12;102555.94;4993941;28;19922;-77
2022/03/02 11:19:47;;;;;;;;;;;;;;;18.08;46.11;102559.44;4976472;28;19920;-75
2022/03/02 11:22:13;;;;;;;;;;;;;;;18.08;46.15;102556.81;4960366;28;20292;-75
2022/03/02 11:24:39;;;;;;;;;;;;;;;18.08;45.96;102554.22;4997698;28;19914;-76
2022/03/02 11:27:04;;;;;;;;;;;;;;;18.07;46.01;102550.75;4997480;28;19913;-78
2022/03/02 11:29:31;;;;;;;;;;;;;;;18.08;46.09;102543.78;4997654;28;19928;-76
2022/03/02 11:31:56;;;;;;;;;;;;;;;18.08;46.01;102543.78;4980040;28;20376;-76
2022/03/02 11:34:26;;;;;;;;;;;;;;;18.08;46.07;102549.00;4997484;28;20008;-76
2022/03/02 11:36:53;;;;;;;;;;;;;;;18.07;45.81;102545.53;4997384;28;19917;-75
2022/03/02 11:39:19;;;;;;;;;;;;;;;18.07;45.85;102545.53;4997124;28;19921;-75
2022/03/02 11:41:45;;;;;;;;;;;;;;;18.08;45.89;102535.97;4996946;28;19969;-75
2022/03/02 11:44:50;;;;;;;;;;;;;;;18.08;45.97;102530.75;4980171;28;19925;-77
2022/03/02 11:47:16;;;;;;;;;;;;;;;18.08;45.96;102525.56;4899250;29;19916;-77
2022/03/02 11:49:42;;;;;;;;;;;;;;;18.08;46.05;102517.75;4899181;29;19926;-76
2022/03/02 11:52:09;;;;;;;;;;;;;;;18.08;45.88;102512.53;4945797;28;19978;-76
2022/03/02 11:54:38;;;;;;;;;;;;;;;18.08;45.71;102513.41;4979477;28;19984;-77
2022/03/02 11:57:03;;;;;;;;;;;;;;;18.08;45.73;102510.78;4997209;28;20430;-77
2022/03/02 11:59:29;;;;;;;;;;;;;;;18.09;45.67;102514.28;4997237;28;19918;-76
2022/03/02 12:01:54;;;;;;;;;;;;;;;18.09;45.68;102506.44;4997024;28;19993;-75
2022/03/02 12:04:19;;;;;;;;;;;;;;;18.10;45.35;102500.41;4979432;28;19924;-75
2022/03/02 12:06:47;;;;;;;;;;;;;;;18.10;45.26;102495.19;4979344;28;19921;-77
2022/03/02 12:09:23;;;;;;;;;;;;;;;18.09;45.41;102494.31;4979095;28;19922;-77
2022/03/02 12:11:48;;;;;;;;;;;;;;;18.11;45.22;102488.25;4996867;28;19914;-76
2022/03/02 12:14:15;;;;;;;;;;;;;;;18.12;45.09;102493.50;4996526;28;19920;-76
2022/03/02 12:16:46;;;;;;;;;;;;;;;18.12;45.07;102490.88;4978975;28;19925;-77
2022/03/02 12:19:22;;;;;;;;;;;;;;;18.14;45.15;102488.28;4978975;28;19964;-78
2022/03/02 12:21:49;;;;;;;;;;;;;;;18.13;45.02;102490.00;4996257;28;20071;-78
2022/03/02 12:24:26;;;;;;;;;;;;;;;18.13;45.05;102479.59;4996441;28;19918;-78
2022/03/02 12:26:51;;;;;;;;;;;;;;;18.13;45.03;102489.16;4978865;28;20386;-77
2022/03/02 12:29:17;;;;;;;;;;;;;;;18.14;44.88;102477.84;4996199;28;19972;-77
2022/03/02 12:31:46;;;;;;;;;;;;;;;18.13;45.16;102477.00;4978820;28;20021;-76